Nearby METAR Reports

 

KMQS - Coatesville, Pennsylvania, USA
Distance from station: ENE 6mi, 10km
Updated: Thu, 18-Jul-2019 9:15am EDT
Few Clouds
Few Clouds
 Wind from calm
Wind: Calm
Temperature: 79°F , 26°C
Dew Point: 75°F , 24°C
Humidity: 89%
Barometer: 29.92 inHg , 1013.2 hPa
Clouds: Few Clouds
Visibility: 9 miles , 14 km
Cloud details: Few Clouds 500 ft
Few Clouds 9500 ft
2019/07/18 13:15 KMQS 181315Z AUTO 00000KT 9SM FEW005 FEW095 26/24 A2992 RMK AO2
KLNS - Lancaster, Pennsylvania, USA
Distance from station: NW 21mi, 33km
Updated: Thu, 18-Jul-2019 8:53am EDT
Mostly cloudy
Mostly cloudy
 Wind from calm
Wind: Calm
Temperature: 79°F , 26°C
Dew Point: 75°F , 24°C
Humidity: 89%
Barometer: 29.90 inHg , 1012.5 hPa
Clouds: Mostly cloudy
Visibility: 7 miles , 11 km
Cloud details: Mostly cloudy 600 ft
2019/07/18 12:53 KLNS 181253Z 00000KT 7SM BKN006 26/24 A2990 RMK AO2 RAB1155E04 SLP121 P0000 T02610244
 
KILG - Wilmington, Delaware, USA
Distance from station: SE 28mi, 45km
Updated: Thu, 18-Jul-2019 8:51am EDT
Clear
Clear
 Wind from calm
Wind: Calm
Temperature: 81°F , 27°C
Heat Index: 87°F , 31°C
Dew Point: 75°F , 24°C
Humidity: 84%
Barometer: 29.90 inHg , 1012.5 hPa
Clouds: Clear
Visibility: 10 miles , 16 km
2019/07/18 12:51 KILG 181251Z 00000KT 10SM CLR 27/24 A2990 RMK AO2 SLP122 T02670244
KRDG - Reading, Pennsylvania, USA
Distance from station: N 29mi, 47km
Updated: Thu, 18-Jul-2019 8:54am EDT
Mostly cloudy
Mostly cloudy
 Wind from calm
Wind: Calm
Temperature: 79°F , 26°C
Dew Point: 75°F , 24°C
Humidity: 89%
Barometer: 29.90 inHg , 1012.5 hPa
Clouds: Mostly cloudy
Visibility: 10 miles , 16 km
Cloud details: Mostly cloudy 1100 ft
Mostly cloudy 7000 ft
2019/07/18 12:54 KRDG 181254Z 00000KT 10SM BKN011 BKN070 26/24 A2990 RMK AO2 SLP126 T02560244
 
KPTW - Pottstown, Pennsylvania, USA
Distance from station: NE 30mi, 48km
Updated: Thu, 18-Jul-2019 9:15am EDT
Overcast
Overcast
 Wind from NNE
Wind: NNE 3 mph , 6 km/h
Temperature: 75°F , 24°C
Dew Point: 75°F , 24°C
Humidity: 100%
Barometer: 29.92 inHg , 1013.2 hPa
Clouds: Overcast
Visibility: 7 miles , 11 km
Cloud details: Mostly cloudy 800 ft
Overcast 1200 ft
2019/07/18 13:15 KPTW 181315Z AUTO 03003KT 7SM BKN008 OVC012 24/24 A2992 RMK AO2 CIG 006V011 T02440239